sensor_id;sensor_type;location;lat;lon;timestamp;P1;durP1;ratioP1;P2;durP2;ratioP2
49139;SDS011;34959;49.310;8.646;2024-03-02T00:00:49;4.68;;;1.90;;
49139;SDS011;34959;49.310;8.646;2024-03-02T00:03:14;4.53;;;1.88;;
49139;SDS011;34959;49.310;8.646;2024-03-02T00:05:40;5.82;;;1.98;;
49139;SDS011;34959;49.310;8.646;2024-03-02T00:08:06;4.20;;;1.90;;
49139;SDS011;34959;49.310;8.646;2024-03-02T00:10:38;4.10;;;1.80;;
49139;SDS011;34959;49.310;8.646;2024-03-02T00:13:07;4.53;;;1.90;;
49139;SDS011;34959;49.310;8.646;2024-03-02T00:15:46;4.10;;;2.03;;
49139;SDS011;34959;49.310;8.646;2024-03-02T00:18:14;4.80;;;1.98;;
49139;SDS011;34959;49.310;8.646;2024-03-02T00:20:43;5.00;;;1.83;;
49139;SDS011;34959;49.310;8.646;2024-03-02T00:23:09;4.47;;;1.67;;
49139;SDS011;34959;49.310;8.646;2024-03-02T00:28:13;4.85;;;1.90;;
49139;SDS011;34959;49.310;8.646;2024-03-02T00:33:26;4.53;;;1.67;;
49139;SDS011;34959;49.310;8.646;2024-03-02T00:35:52;8.23;;;1.77;;
49139;SDS011;34959;49.310;8.646;2024-03-02T00:38:18;6.80;;;1.88;;
49139;SDS011;34959;49.310;8.646;2024-03-02T00:40:44;7.88;;;1.73;;
49139;SDS011;34959;49.310;8.646;2024-03-02T00:46:03;4.72;;;1.80;;
49139;SDS011;34959;49.310;8.646;2024-03-02T00:48:28;3.63;;;1.73;;
49139;SDS011;34959;49.310;8.646;2024-03-02T00:50:56;3.67;;;1.63;;
49139;SDS011;34959;49.310;8.646;2024-03-02T00:53:23;3.40;;;1.58;;
49139;SDS011;34959;49.310;8.646;2024-03-02T00:55:52;3.58;;;1.42;;
49139;SDS011;34959;49.310;8.646;2024-03-02T00:58:18;3.05;;;1.42;;
49139;SDS011;34959;49.310;8.646;2024-03-02T01:00:43;2.88;;;1.40;;
49139;SDS011;34959;49.310;8.646;2024-03-02T01:03:08;2.97;;;1.30;;
49139;SDS011;34959;49.310;8.646;2024-03-02T01:05:35;2.03;;;1.20;;
49139;SDS011;34959;49.310;8.646;2024-03-02T01:08:01;3.22;;;1.50;;
49139;SDS011;34959;49.310;8.646;2024-03-02T01:10:26;2.90;;;1.55;;
49139;SDS011;34959;49.310;8.646;2024-03-02T01:12:52;4.40;;;1.40;;
49139;SDS011;34959;49.310;8.646;2024-03-02T01:15:18;4.30;;;1.60;;
49139;SDS011;34959;49.310;8.646;2024-03-02T01:17:43;4.78;;;1.40;;
49139;SDS011;34959;49.310;8.646;2024-03-02T01:20:08;4.93;;;1.50;;
49139;SDS011;34959;49.310;8.646;2024-03-02T01:22:34;5.53;;;1.40;;
49139;SDS011;34959;49.310;8.646;2024-03-02T01:25:01;3.47;;;1.08;;
49139;SDS011;34959;49.310;8.646;2024-03-02T01:27:26;2.28;;;1.40;;
49139;SDS011;34959;49.310;8.646;2024-03-02T01:29:52;2.70;;;1.50;;
49139;SDS011;34959;49.310;8.646;2024-03-02T01:32:17;4.80;;;1.85;;
49139;SDS011;34959;49.310;8.646;2024-03-02T01:34:43;3.30;;;1.55;;
49139;SDS011;34959;49.310;8.646;2024-03-02T01:37:08;2.35;;;1.40;;
49139;SDS011;34959;49.310;8.646;2024-03-02T01:39:35;2.85;;;1.60;;
49139;SDS011;34959;49.310;8.646;2024-03-02T01:42:00;2.15;;;1.50;;
49139;SDS011;34959;49.310;8.646;2024-03-02T01:44:26;3.88;;;1.42;;
49139;SDS011;34959;49.310;8.646;2024-03-02T01:46:51;2.20;;;1.15;;
49139;SDS011;34959;49.310;8.646;2024-03-02T01:49:16;7.55;;;1.60;;
49139;SDS011;34959;49.310;8.646;2024-03-02T01:51:42;8.07;;;1.90;;
49139;SDS011;34959;49.310;8.646;2024-03-02T01:54:07;6.93;;;1.95;;
49139;SDS011;34959;49.310;8.646;2024-03-02T01:56:33;4.53;;;1.70;;
49139;SDS011;34959;49.310;8.646;2024-03-02T01:58:59;5.13;;;1.65;;
49139;SDS011;34959;49.310;8.646;2024-03-02T02:01:24;4.70;;;1.60;;
49139;SDS011;34959;49.310;8.646;2024-03-02T02:03:49;2.60;;;1.40;;
49139;SDS011;34959;49.310;8.646;2024-03-02T02:06:15;4.43;;;1.80;;
49139;SDS011;34959;49.310;8.646;2024-03-02T02:08:40;2.80;;;1.50;;
49139;SDS011;34959;49.310;8.646;2024-03-02T02:11:06;2.03;;;1.10;;
49139;SDS011;34959;49.310;8.646;2024-03-02T02:13:31;2.42;;;1.40;;
49139;SDS011;34959;49.310;8.646;2024-03-02T02:16:04;3.50;;;1.60;;
49139;SDS011;34959;49.310;8.646;2024-03-02T02:18:32;3.03;;;1.63;;
49139;SDS011;34959;49.310;8.646;2024-03-02T02:20:58;4.60;;;2.03;;
49139;SDS011;34959;49.310;8.646;2024-03-02T02:23:23;3.53;;;1.67;;
49139;SDS011;34959;49.310;8.646;2024-03-02T02:25:48;2.30;;;1.48;;
49139;SDS011;34959;49.310;8.646;2024-03-02T02:28:14;6.10;;;1.58;;
49139;SDS011;34959;49.310;8.646;2024-03-02T02:30:39;2.53;;;1.48;;
49139;SDS011;34959;49.310;8.646;2024-03-02T02:33:04;3.33;;;1.45;;
49139;SDS011;34959;49.310;8.646;2024-03-02T02:35:30;2.88;;;1.60;;
49139;SDS011;34959;49.310;8.646;2024-03-02T02:37:55;3.67;;;1.60;;
49139;SDS011;34959;49.310;8.646;2024-03-02T02:40:22;9.55;;;1.65;;
49139;SDS011;34959;49.310;8.646;2024-03-02T02:42:47;2.30;;;1.50;;
49139;SDS011;34959;49.310;8.646;2024-03-02T02:45:13;4.03;;;1.70;;
49139;SDS011;34959;49.310;8.646;2024-03-02T02:47:40;3.25;;;1.40;;
49139;SDS011;34959;49.310;8.646;2024-03-02T02:50:09;2.42;;;1.50;;
49139;SDS011;34959;49.310;8.646;2024-03-02T02:52:36;2.90;;;1.50;;
49139;SDS011;34959;49.310;8.646;2024-03-02T02:55:04;4.40;;;1.75;;
49139;SDS011;34959;49.310;8.646;2024-03-02T02:57:31;2.10;;;1.27;;
49139;SDS011;34959;49.310;8.646;2024-03-02T03:00:00;2.65;;;1.58;;
49139;SDS011;34959;49.310;8.646;2024-03-02T03:02:38;3.78;;;1.60;;
49139;SDS011;34959;49.310;8.646;2024-03-02T03:05:04;3.58;;;1.58;;
49139;SDS011;34959;49.310;8.646;2024-03-02T03:07:31;4.15;;;1.58;;
49139;SDS011;34959;49.310;8.646;2024-03-02T03:09:56;2.58;;;1.50;;
49139;SDS011;34959;49.310;8.646;2024-03-02T03:12:22;2.33;;;1.38;;
49139;SDS011;34959;49.310;8.646;2024-03-02T03:14:47;2.22;;;1.50;;
49139;SDS011;34959;49.310;8.646;2024-03-02T03:17:13;2.70;;;1.40;;
49139;SDS011;34959;49.310;8.646;2024-03-02T03:19:38;2.75;;;1.40;;
49139;SDS011;34959;49.310;8.646;2024-03-02T03:22:04;2.13;;;1.42;;
49139;SDS011;34959;49.310;8.646;2024-03-02T03:24:29;2.22;;;1.40;;
49139;SDS011;34959;49.310;8.646;2024-03-02T03:26:55;2.53;;;1.50;;
49139;SDS011;34959;49.310;8.646;2024-03-02T03:29:20;2.38;;;1.42;;
49139;SDS011;34959;49.310;8.646;2024-03-02T03:31:45;2.30;;;1.52;;
49139;SDS011;34959;49.310;8.646;2024-03-02T03:34:11;2.60;;;1.60;;
49139;SDS011;34959;49.310;8.646;2024-03-02T03:36:40;2.60;;;1.60;;
49139;SDS011;34959;49.310;8.646;2024-03-02T03:39:06;2.25;;;1.58;;
49139;SDS011;34959;49.310;8.646;2024-03-02T03:41:32;2.47;;;1.35;;
49139;SDS011;34959;49.310;8.646;2024-03-02T03:43:57;2.75;;;1.48;;
49139;SDS011;34959;49.310;8.646;2024-03-02T03:46:22;1.88;;;1.38;;
49139;SDS011;34959;49.310;8.646;2024-03-02T03:48:48;2.03;;;1.40;;
49139;SDS011;34959;49.310;8.646;2024-03-02T03:51:13;2.38;;;1.60;;
49139;SDS011;34959;49.310;8.646;2024-03-02T03:53:39;2.67;;;1.30;;
49139;SDS011;34959;49.310;8.646;2024-03-02T03:56:04;2.20;;;1.45;;
49139;SDS011;34959;49.310;8.646;2024-03-02T03:58:30;1.85;;;1.55;;
49139;SDS011;34959;49.310;8.646;2024-03-02T04:00:55;3.97;;;1.60;;
49139;SDS011;34959;49.310;8.646;2024-03-02T04:03:21;1.70;;;1.35;;
49139;SDS011;34959;49.310;8.646;2024-03-02T04:05:47;2.08;;;1.42;;
49139;SDS011;34959;49.310;8.646;2024-03-02T04:08:12;2.00;;;1.60;;
49139;SDS011;34959;49.310;8.646;2024-03-02T04:10:38;5.22;;;1.77;;
49139;SDS011;34959;49.310;8.646;2024-03-02T04:13:03;2.13;;;1.38;;
49139;SDS011;34959;49.310;8.646;2024-03-02T04:15:28;3.80;;;1.50;;
49139;SDS011;34959;49.310;8.646;2024-03-02T04:17:54;2.20;;;1.30;;
49139;SDS011;34959;49.310;8.646;2024-03-02T04:20:20;2.88;;;1.70;;
49139;SDS011;34959;49.310;8.646;2024-03-02T04:22:45;3.28;;;1.60;;
49139;SDS011;34959;49.310;8.646;2024-03-02T04:25:11;3.30;;;1.50;;
49139;SDS011;34959;49.310;8.646;2024-03-02T04:27:36;3.10;;;1.48;;
49139;SDS011;34959;49.310;8.646;2024-03-02T04:30:02;3.30;;;1.40;;
49139;SDS011;34959;49.310;8.646;2024-03-02T04:32:28;2.17;;;1.33;;
49139;SDS011;34959;49.310;8.646;2024-03-02T04:34:54;2.08;;;1.52;;
49139;SDS011;34959;49.310;8.646;2024-03-02T04:37:19;2.83;;;1.42;;
49139;SDS011;34959;49.310;8.646;2024-03-02T04:39:45;3.80;;;1.50;;
49139;SDS011;34959;49.310;8.646;2024-03-02T04:42:10;4.38;;;1.60;;
49139;SDS011;34959;49.310;8.646;2024-03-02T04:44:36;5.50;;;1.60;;
49139;SDS011;34959;49.310;8.646;2024-03-02T04:47:03;2.50;;;1.50;;
49139;SDS011;34959;49.310;8.646;2024-03-02T04:49:29;2.20;;;1.40;;
49139;SDS011;34959;49.310;8.646;2024-03-02T04:51:55;4.07;;;1.77;;
49139;SDS011;34959;49.310;8.646;2024-03-02T04:54:20;2.05;;;1.33;;
49139;SDS011;34959;49.310;8.646;2024-03-02T04:56:46;1.88;;;1.30;;
49139;SDS011;34959;49.310;8.646;2024-03-02T04:59:18;2.55;;;1.58;;
49139;SDS011;34959;49.310;8.646;2024-03-02T05:01:43;1.98;;;1.60;;
49139;SDS011;34959;49.310;8.646;2024-03-02T05:04:09;1.85;;;1.23;;
49139;SDS011;34959;49.310;8.646;2024-03-02T05:06:39;2.58;;;1.70;;
49139;SDS011;34959;49.310;8.646;2024-03-02T05:09:05;3.20;;;1.77;;
49139;SDS011;34959;49.310;8.646;2024-03-02T05:11:31;3.35;;;1.48;;
49139;SDS011;34959;49.310;8.646;2024-03-02T05:14:18;2.88;;;1.35;;
49139;SDS011;34959;49.310;8.646;2024-03-02T05:16:44;2.53;;;1.65;;
49139;SDS011;34959;49.310;8.646;2024-03-02T05:19:09;5.03;;;1.70;;
49139;SDS011;34959;49.310;8.646;2024-03-02T05:21:35;6.65;;;1.40;;
49139;SDS011;34959;49.310;8.646;2024-03-02T05:24:00;1.98;;;1.30;;
49139;SDS011;34959;49.310;8.646;2024-03-02T05:26:26;2.55;;;1.30;;
49139;SDS011;34959;49.310;8.646;2024-03-02T05:28:51;1.83;;;1.38;;
49139;SDS011;34959;49.310;8.646;2024-03-02T05:31:17;4.75;;;1.65;;
49139;SDS011;34959;49.310;8.646;2024-03-02T05:33:43;5.88;;;1.80;;
49139;SDS011;34959;49.310;8.646;2024-03-02T05:36:08;1.58;;;1.45;;
49139;SDS011;34959;49.310;8.646;2024-03-02T05:38:34;2.65;;;1.55;;
49139;SDS011;34959;49.310;8.646;2024-03-02T05:41:00;6.68;;;1.48;;
49139;SDS011;34959;49.310;8.646;2024-03-02T05:43:25;5.90;;;1.58;;
49139;SDS011;34959;49.310;8.646;2024-03-02T05:45:51;3.75;;;1.33;;
49139;SDS011;34959;49.310;8.646;2024-03-02T05:48:16;2.63;;;1.60;;
49139;SDS011;34959;49.310;8.646;2024-03-02T05:50:41;1.80;;;1.20;;
49139;SDS011;34959;49.310;8.646;2024-03-02T05:53:07;3.28;;;1.65;;
49139;SDS011;34959;49.310;8.646;2024-03-02T05:55:32;2.40;;;1.40;;
49139;SDS011;34959;49.310;8.646;2024-03-02T05:57:58;2.80;;;1.48;;
49139;SDS011;34959;49.310;8.646;2024-03-02T06:00:23;1.90;;;1.40;;
49139;SDS011;34959;49.310;8.646;2024-03-02T06:02:48;3.55;;;1.60;;
49139;SDS011;34959;49.310;8.646;2024-03-02T06:05:14;1.92;;;1.60;;
49139;SDS011;34959;49.310;8.646;2024-03-02T06:07:41;5.03;;;1.30;;
49139;SDS011;34959;49.310;8.646;2024-03-02T06:10:06;4.78;;;1.50;;
49139;SDS011;34959;49.310;8.646;2024-03-02T06:12:33;4.00;;;2.08;;
49139;SDS011;34959;49.310;8.646;2024-03-02T06:14:59;5.47;;;1.52;;
49139;SDS011;34959;49.310;8.646;2024-03-02T06:17:24;2.35;;;1.50;;
49139;SDS011;34959;49.310;8.646;2024-03-02T06:19:50;3.42;;;1.48;;
49139;SDS011;34959;49.310;8.646;2024-03-02T06:22:15;2.05;;;1.38;;
49139;SDS011;34959;49.310;8.646;2024-03-02T06:24:41;2.05;;;1.30;;
49139;SDS011;34959;49.310;8.646;2024-03-02T06:27:06;1.83;;;1.30;;
49139;SDS011;34959;49.310;8.646;2024-03-02T06:29:34;2.85;;;1.70;;
49139;SDS011;34959;49.310;8.646;2024-03-02T06:32:00;3.35;;;1.80;;
49139;SDS011;34959;49.310;8.646;2024-03-02T06:34:25;2.72;;;1.40;;
49139;SDS011;34959;49.310;8.646;2024-03-02T06:36:51;1.70;;;1.35;;
49139;SDS011;34959;49.310;8.646;2024-03-02T06:39:16;1.42;;;1.10;;
49139;SDS011;34959;49.310;8.646;2024-03-02T06:41:41;1.90;;;1.35;;
49139;SDS011;34959;49.310;8.646;2024-03-02T06:44:12;2.22;;;1.70;;
49139;SDS011;34959;49.310;8.646;2024-03-02T06:46:37;3.17;;;1.40;;
49139;SDS011;34959;49.310;8.646;2024-03-02T06:49:03;3.15;;;1.40;;
49139;SDS011;34959;49.310;8.646;2024-03-02T06:51:29;2.53;;;1.60;;
49139;SDS011;34959;49.310;8.646;2024-03-02T06:53:54;2.33;;;1.40;;
49139;SDS011;34959;49.310;8.646;2024-03-02T06:56:20;3.58;;;1.52;;
49139;SDS011;34959;49.310;8.646;2024-03-02T06:58:46;1.95;;;1.27;;
49139;SDS011;34959;49.310;8.646;2024-03-02T07:01:12;2.55;;;1.50;;
49139;SDS011;34959;49.310;8.646;2024-03-02T07:03:37;2.17;;;1.30;;
49139;SDS011;34959;49.310;8.646;2024-03-02T07:06:04;2.28;;;1.20;;
49139;SDS011;34959;49.310;8.646;2024-03-02T07:08:30;2.47;;;1.13;;
49139;SDS011;34959;49.310;8.646;2024-03-02T07:10:55;8.82;;;1.88;;
49139;SDS011;34959;49.310;8.646;2024-03-02T07:13:22;5.32;;;1.40;;
49139;SDS011;34959;49.310;8.646;2024-03-02T07:15:47;2.80;;;1.45;;
49139;SDS011;34959;49.310;8.646;2024-03-02T07:18:27;2.75;;;1.23;;
49139;SDS011;34959;49.310;8.646;2024-03-02T07:20:53;5.20;;;1.67;;
49139;SDS011;34959;49.310;8.646;2024-03-02T07:23:18;2.88;;;1.80;;
49139;SDS011;34959;49.310;8.646;2024-03-02T07:25:45;4.05;;;1.65;;
49139;SDS011;34959;49.310;8.646;2024-03-02T07:28:11;2.55;;;1.40;;
49139;SDS011;34959;49.310;8.646;2024-03-02T07:30:36;9.40;;;1.20;;
49139;SDS011;34959;49.310;8.646;2024-03-02T07:33:03;3.20;;;1.35;;
49139;SDS011;34959;49.310;8.646;2024-03-02T07:35:29;1.90;;;1.30;;
49139;SDS011;34959;49.310;8.646;2024-03-02T07:37:56;4.45;;;1.23;;
49139;SDS011;34959;49.310;8.646;2024-03-02T07:40:22;2.75;;;1.30;;
49139;SDS011;34959;49.310;8.646;2024-03-02T07:42:48;3.22;;;1.55;;
49139;SDS011;34959;49.310;8.646;2024-03-02T07:45:13;5.85;;;1.25;;
49139;SDS011;34959;49.310;8.646;2024-03-02T07:47:39;1.90;;;1.30;;
49139;SDS011;34959;49.310;8.646;2024-03-02T07:50:04;1.90;;;1.23;;
49139;SDS011;34959;49.310;8.646;2024-03-02T07:52:31;2.22;;;1.30;;
49139;SDS011;34959;49.310;8.646;2024-03-02T07:54:58;4.20;;;1.30;;
49139;SDS011;34959;49.310;8.646;2024-03-02T07:57:23;4.75;;;1.80;;
49139;SDS011;34959;49.310;8.646;2024-03-02T07:59:48;3.55;;;1.25;;
49139;SDS011;34959;49.310;8.646;2024-03-02T08:02:14;2.20;;;1.30;;
49139;SDS011;34959;49.310;8.646;2024-03-02T08:04:40;3.60;;;1.25;;
49139;SDS011;34959;49.310;8.646;2024-03-02T08:07:05;1.63;;;1.15;;
49139;SDS011;34959;49.310;8.646;2024-03-02T08:09:31;1.80;;;1.35;;
49139;SDS011;34959;49.310;8.646;2024-03-02T08:11:56;7.30;;;1.40;;
49139;SDS011;34959;49.310;8.646;2024-03-02T08:14:23;4.80;;;1.10;;
49139;SDS011;34959;49.310;8.646;2024-03-02T08:16:49;4.82;;;1.40;;
49139;SDS011;34959;49.310;8.646;2024-03-02T08:19:14;8.27;;;1.50;;
49139;SDS011;34959;49.310;8.646;2024-03-02T08:21:40;4.65;;;1.80;;
49139;SDS011;34959;49.310;8.646;2024-03-02T08:24:05;3.72;;;1.25;;
49139;SDS011;34959;49.310;8.646;2024-03-02T08:26:31;3.90;;;1.20;;
49139;SDS011;34959;49.310;8.646;2024-03-02T08:29:00;3.38;;;1.30;;
49139;SDS011;34959;49.310;8.646;2024-03-02T08:31:27;3.75;;;1.48;;
49139;SDS011;34959;49.310;8.646;2024-03-02T08:33:52;5.00;;;1.58;;
49139;SDS011;34959;49.310;8.646;2024-03-02T08:36:18;3.10;;;1.50;;
49139;SDS011;34959;49.310;8.646;2024-03-02T08:38:44;1.80;;;1.30;;
49139;SDS011;34959;49.310;8.646;2024-03-02T08:41:09;2.92;;;1.20;;
49139;SDS011;34959;49.310;8.646;2024-03-02T08:43:34;4.65;;;1.40;;
49139;SDS011;34959;49.310;8.646;2024-03-02T08:46:00;3.22;;;1.25;;
49139;SDS011;34959;49.310;8.646;2024-03-02T08:48:25;2.35;;;1.38;;
49139;SDS011;34959;49.310;8.646;2024-03-02T08:50:51;2.42;;;1.38;;
49139;SDS011;34959;49.310;8.646;2024-03-02T08:53:16;1.98;;;1.10;;
49139;SDS011;34959;49.310;8.646;2024-03-02T08:55:44;3.78;;;1.23;;
49139;SDS011;34959;49.310;8.646;2024-03-02T08:58:10;2.10;;;1.35;;
49139;SDS011;34959;49.310;8.646;2024-03-02T09:00:36;2.15;;;1.25;;
49139;SDS011;34959;49.310;8.646;2024-03-02T09:03:01;2.35;;;1.33;;
49139;SDS011;34959;49.310;8.646;2024-03-02T09:05:26;3.05;;;1.52;;
49139;SDS011;34959;49.310;8.646;2024-03-02T09:07:52;4.40;;;1.30;;
49139;SDS011;34959;49.310;8.646;2024-03-02T09:10:17;2.28;;;1.50;;
49139;SDS011;34959;49.310;8.646;2024-03-02T09:12:43;1.60;;;1.15;;
49139;SDS011;34959;49.310;8.646;2024-03-02T09:15:08;5.43;;;1.23;;
49139;SDS011;34959;49.310;8.646;2024-03-02T09:17:34;2.72;;;1.10;;
49139;SDS011;34959;49.310;8.646;2024-03-02T09:19:59;3.47;;;1.17;;
49139;SDS011;34959;49.310;8.646;2024-03-02T09:22:24;20.67;;;4.40;;
49139;SDS011;34959;49.310;8.646;2024-03-02T09:24:50;7.43;;;6.07;;
49139;SDS011;34959;49.310;8.646;2024-03-02T09:27:15;8.63;;;6.97;;
49139;SDS011;34959;49.310;8.646;2024-03-02T09:29:41;8.65;;;5.88;;
49139;SDS011;34959;49.310;8.646;2024-03-02T09:32:06;6.38;;;5.00;;
49139;SDS011;34959;49.310;8.646;2024-03-02T09:34:33;5.78;;;4.25;;
49139;SDS011;34959;49.310;8.646;2024-03-02T09:36:59;6.05;;;3.80;;
49139;SDS011;34959;49.310;8.646;2024-03-02T09:39:24;4.35;;;3.58;;
49139;SDS011;34959;49.310;8.646;2024-03-02T09:41:50;4.78;;;3.10;;
49139;SDS011;34959;49.310;8.646;2024-03-02T09:44:16;3.17;;;2.50;;
49139;SDS011;34959;49.310;8.646;2024-03-02T09:46:41;4.45;;;2.70;;
49139;SDS011;34959;49.310;8.646;2024-03-02T09:49:09;3.65;;;2.22;;
49139;SDS011;34959;49.310;8.646;2024-03-02T09:51:37;4.32;;;2.30;;
49139;SDS011;34959;49.310;8.646;2024-03-02T09:54:03;3.13;;;1.90;;
49139;SDS011;34959;49.310;8.646;2024-03-02T09:56:28;3.45;;;1.60;;
49139;SDS011;34959;49.310;8.646;2024-03-02T09:58:53;4.00;;;1.77;;
49139;SDS011;34959;49.310;8.646;2024-03-02T10:01:19;2.63;;;1.65;;
49139;SDS011;34959;49.310;8.646;2024-03-02T10:03:44;2.65;;;1.50;;
49139;SDS011;34959;49.310;8.646;2024-03-02T10:06:23;2.10;;;1.27;;
49139;SDS011;34959;49.310;8.646;2024-03-02T10:08:50;2.17;;;1.40;;
49139;SDS011;34959;49.310;8.646;2024-03-02T10:11:29;2.83;;;1.35;;
49139;SDS011;34959;49.310;8.646;2024-03-02T10:14:10;2.05;;;1.23;;
49139;SDS011;34959;49.310;8.646;2024-03-02T10:16:36;3.97;;;1.25;;
49139;SDS011;34959;49.310;8.646;2024-03-02T10:21:41;1.85;;;1.20;;
49139;SDS011;34959;49.310;8.646;2024-03-02T10:24:07;1.90;;;1.40;;
49139;SDS011;34959;49.310;8.646;2024-03-02T10:26:32;1.80;;;1.30;;
49139;SDS011;34959;49.310;8.646;2024-03-02T10:28:58;4.47;;;1.33;;
49139;SDS011;34959;49.310;8.646;2024-03-02T10:31:24;2.45;;;1.23;;
49139;SDS011;34959;49.310;8.646;2024-03-02T10:33:53;1.65;;;1.08;;
49139;SDS011;34959;49.310;8.646;2024-03-02T10:36:19;2.08;;;1.30;;
49139;SDS011;34959;49.310;8.646;2024-03-02T10:38:45;1.98;;;1.40;;
49139;SDS011;34959;49.310;8.646;2024-03-02T10:41:16;1.83;;;1.35;;
49139;SDS011;34959;49.310;8.646;2024-03-02T10:43:42;2.13;;;1.20;;
49139;SDS011;34959;49.310;8.646;2024-03-02T10:46:07;2.13;;;1.13;;
49139;SDS011;34959;49.310;8.646;2024-03-02T10:48:33;2.45;;;1.38;;
49139;SDS011;34959;49.310;8.646;2024-03-02T10:51:00;2.13;;;1.20;;
49139;SDS011;34959;49.310;8.646;2024-03-02T10:53:27;1.45;;;1.02;;
49139;SDS011;34959;49.310;8.646;2024-03-02T10:55:54;4.90;;;1.25;;
49139;SDS011;34959;49.310;8.646;2024-03-02T10:58:27;2.13;;;1.10;;
49139;SDS011;34959;49.310;8.646;2024-03-02T11:00:57;1.58;;;1.10;;
49139;SDS011;34959;49.310;8.646;2024-03-02T11:03:25;1.25;;;1.10;;
49139;SDS011;34959;49.310;8.646;2024-03-02T11:05:51;2.35;;;1.23;;
49139;SDS011;34959;49.310;8.646;2024-03-02T11:08:18;2.08;;;1.27;;
49139;SDS011;34959;49.310;8.646;2024-03-02T11:10:52;1.50;;;0.98;;
49139;SDS011;34959;49.310;8.646;2024-03-02T11:13:27;2.80;;;1.27;;
49139;SDS011;34959;49.310;8.646;2024-03-02T11:15:59;3.10;;;1.17;;
49139;SDS011;34959;49.310;8.646;2024-03-02T11:18:29;1.70;;;1.13;;
49139;SDS011;34959;49.310;8.646;2024-03-02T11:20:55;1.67;;;1.13;;
49139;SDS011;34959;49.310;8.646;2024-03-02T11:23:20;2.97;;;1.10;;
49139;SDS011;34959;49.310;8.646;2024-03-02T11:26:19;2.47;;;1.23;;
49139;SDS011;34959;49.310;8.646;2024-03-02T11:28:44;2.35;;;1.20;;
49139;SDS011;34959;49.310;8.646;2024-03-02T11:31:10;1.80;;;1.23;;
49139;SDS011;34959;49.310;8.646;2024-03-02T11:33:36;1.88;;;1.10;;
49139;SDS011;34959;49.310;8.646;2024-03-02T11:36:01;2.55;;;1.20;;
49139;SDS011;34959;49.310;8.646;2024-03-02T11:38:27;2.45;;;1.13;;
49139;SDS011;34959;49.310;8.646;2024-03-02T11:40:54;2.42;;;1.00;;
49139;SDS011;34959;49.310;8.646;2024-03-02T11:43:20;2.38;;;1.00;;
49139;SDS011;34959;49.310;8.646;2024-03-02T11:45:46;1.92;;;1.10;;
49139;SDS011;34959;49.310;8.646;2024-03-02T11:48:14;2.15;;;1.20;;
49139;SDS011;34959;49.310;8.646;2024-03-02T11:50:47;2.90;;;1.10;;
49139;SDS011;34959;49.310;8.646;2024-03-02T11:53:14;1.40;;;0.90;;
49139;SDS011;34959;49.310;8.646;2024-03-02T11:55:40;1.90;;;1.10;;
49139;SDS011;34959;49.310;8.646;2024-03-02T11:58:08;1.48;;;1.00;;
49139;SDS011;34959;49.310;8.646;2024-03-02T12:00:34;1.25;;;1.00;;
49139;SDS011;34959;49.310;8.646;2024-03-02T12:05:26;1.23;;;0.90;;
49139;SDS011;34959;49.310;8.646;2024-03-02T12:07:59;1.17;;;0.80;;
49139;SDS011;34959;49.310;8.646;2024-03-02T12:10:27;1.20;;;0.90;;
49139;SDS011;34959;49.310;8.646;2024-03-02T12:12:59;1.20;;;0.90;;
49139;SDS011;34959;49.310;8.646;2024-03-02T12:15:26;1.17;;;0.82;;
49139;SDS011;34959;49.310;8.646;2024-03-02T12:17:53;1.35;;;0.80;;
49139;SDS011;34959;49.310;8.646;2024-03-02T12:20:19;2.75;;;1.00;;
49139;SDS011;34959;49.310;8.646;2024-03-02T12:22:45;1.33;;;0.80;;
49139;SDS011;34959;49.310;8.646;2024-03-02T12:25:11;1.92;;;0.80;;
49139;SDS011;34959;49.310;8.646;2024-03-02T12:27:36;2.08;;;1.10;;
49139;SDS011;34959;49.310;8.646;2024-03-02T12:30:02;1.77;;;0.70;;
49139;SDS011;34959;49.310;8.646;2024-03-02T12:32:29;1.58;;;0.77;;
49139;SDS011;34959;49.310;8.646;2024-03-02T12:34:55;1.25;;;0.80;;
49139;SDS011;34959;49.310;8.646;2024-03-02T12:37:20;1.15;;;0.80;;
49139;SDS011;34959;49.310;8.646;2024-03-02T12:39:45;2.05;;;0.90;;
49139;SDS011;34959;49.310;8.646;2024-03-02T12:42:11;1.30;;;0.90;;
49139;SDS011;34959;49.310;8.646;2024-03-02T12:44:37;3.00;;;0.90;;
49139;SDS011;34959;49.310;8.646;2024-03-02T12:47:03;1.30;;;0.93;;
49139;SDS011;34959;49.310;8.646;2024-03-02T12:49:29;2.88;;;1.10;;
49139;SDS011;34959;49.310;8.646;2024-03-02T12:51:55;1.83;;;0.82;;
49139;SDS011;34959;49.310;8.646;2024-03-02T12:54:22;1.15;;;0.80;;
49139;SDS011;34959;49.310;8.646;2024-03-02T12:56:50;0.90;;;0.80;;
49139;SDS011;34959;49.310;8.646;2024-03-02T12:59:19;1.38;;;0.90;;
49139;SDS011;34959;49.310;8.646;2024-03-02T13:01:50;1.20;;;1.05;;
49139;SDS011;34959;49.310;8.646;2024-03-02T13:04:16;1.33;;;0.70;;
49139;SDS011;34959;49.310;8.646;2024-03-02T13:06:42;1.67;;;1.10;;
49139;SDS011;34959;49.310;8.646;2024-03-02T13:09:07;1.40;;;0.80;;
49139;SDS011;34959;49.310;8.646;2024-03-02T13:14:05;0.98;;;0.85;;
49139;SDS011;34959;49.310;8.646;2024-03-02T13:16:30;0.88;;;0.80;;
49139;SDS011;34959;49.310;8.646;2024-03-02T13:18:55;1.13;;;0.70;;
49139;SDS011;34959;49.310;8.646;2024-03-02T13:21:21;1.00;;;0.80;;
49139;SDS011;34959;49.310;8.646;2024-03-02T13:23:46;1.55;;;0.90;;
49139;SDS011;34959;49.310;8.646;2024-03-02T13:26:12;1.20;;;0.88;;
49139;SDS011;34959;49.310;8.646;2024-03-02T13:28:38;1.27;;;0.98;;
49139;SDS011;34959;49.310;8.646;2024-03-02T13:31:04;1.25;;;0.90;;
49139;SDS011;34959;49.310;8.646;2024-03-02T13:33:30;1.23;;;0.82;;
49139;SDS011;34959;49.310;8.646;2024-03-02T13:35:56;0.98;;;0.70;;
49139;SDS011;34959;49.310;8.646;2024-03-02T13:38:21;1.05;;;0.80;;
49139;SDS011;34959;49.310;8.646;2024-03-02T13:40:48;1.08;;;0.80;;
49139;SDS011;34959;49.310;8.646;2024-03-02T13:43:16;1.05;;;0.80;;
49139;SDS011;34959;49.310;8.646;2024-03-02T13:45:42;1.80;;;0.88;;
49139;SDS011;34959;49.310;8.646;2024-03-02T13:48:07;1.85;;;0.80;;
49139;SDS011;34959;49.310;8.646;2024-03-02T13:50:32;0.93;;;0.80;;
49139;SDS011;34959;49.310;8.646;2024-03-02T13:52:58;1.52;;;0.80;;
49139;SDS011;34959;49.310;8.646;2024-03-02T13:55:23;0.90;;;0.80;;
49139;SDS011;34959;49.310;8.646;2024-03-02T13:57:49;1.23;;;0.80;;
49139;SDS011;34959;49.310;8.646;2024-03-02T14:00:15;1.40;;;0.85;;
49139;SDS011;34959;49.310;8.646;2024-03-02T14:02:42;1.08;;;0.80;;
49139;SDS011;34959;49.310;8.646;2024-03-02T14:05:08;1.08;;;0.85;;
49139;SDS011;34959;49.310;8.646;2024-03-02T14:07:39;2.95;;;0.77;;
49139;SDS011;34959;49.310;8.646;2024-03-02T14:10:05;1.30;;;0.90;;
49139;SDS011;34959;49.310;8.646;2024-03-02T14:12:31;1.00;;;0.73;;
49139;SDS011;34959;49.310;8.646;2024-03-02T14:14:56;0.90;;;0.60;;
49139;SDS011;34959;49.310;8.646;2024-03-02T14:17:27;1.25;;;0.70;;
49139;SDS011;34959;49.310;8.646;2024-03-02T14:19:53;1.52;;;0.90;;
49139;SDS011;34959;49.310;8.646;2024-03-02T14:22:19;1.38;;;0.70;;
49139;SDS011;34959;49.310;8.646;2024-03-02T14:24:47;1.10;;;0.70;;
49139;SDS011;34959;49.310;8.646;2024-03-02T14:27:14;2.45;;;0.70;;
49139;SDS011;34959;49.310;8.646;2024-03-02T14:29:39;1.10;;;0.63;;
49139;SDS011;34959;49.310;8.646;2024-03-02T14:32:06;1.20;;;0.70;;
49139;SDS011;34959;49.310;8.646;2024-03-02T14:34:31;0.85;;;0.63;;
49139;SDS011;34959;49.310;8.646;2024-03-02T14:36:56;1.25;;;0.73;;
49139;SDS011;34959;49.310;8.646;2024-03-02T14:39:22;1.50;;;0.90;;
49139;SDS011;34959;49.310;8.646;2024-03-02T14:41:47;0.95;;;0.52;;
49139;SDS011;34959;49.310;8.646;2024-03-02T14:44:14;1.67;;;0.60;;
49139;SDS011;34959;49.310;8.646;2024-03-02T14:46:40;1.08;;;0.80;;
49139;SDS011;34959;49.310;8.646;2024-03-02T14:49:05;1.35;;;0.73;;
49139;SDS011;34959;49.310;8.646;2024-03-02T14:51:31;1.23;;;0.70;;
49139;SDS011;34959;49.310;8.646;2024-03-02T14:53:56;1.30;;;0.80;;
49139;SDS011;34959;49.310;8.646;2024-03-02T14:56:21;1.85;;;0.65;;
49139;SDS011;34959;49.310;8.646;2024-03-02T14:58:47;1.55;;;0.85;;